createdAt,value
2023-08-10T00:02:49.547Z,16.38
2023-08-10T00:07:51.799Z,16.33
2023-08-10T00:12:53.277Z,16.24
2023-08-10T00:17:54.853Z,16.13
2023-08-10T00:22:56.456Z,16.35
2023-08-10T00:27:58.108Z,16.24
2023-08-10T00:33:02.176Z,16.40
2023-08-10T00:38:03.892Z,16.25
2023-08-10T00:43:06.553Z,16.36
2023-08-10T00:48:09.733Z,16.41
2023-08-10T00:53:12.265Z,16.31
2023-08-10T00:58:14.074Z,16.42
2023-08-10T01:03:16.736Z,16.49
2023-08-10T01:08:32.664Z,16.43
2023-08-10T01:13:45.050Z,16.47
2023-08-10T01:18:48.469Z,16.36
2023-08-10T01:23:55.759Z,16.48
2023-08-10T01:28:57.900Z,16.55
2023-08-10T01:33:59.410Z,16.52
2023-08-10T01:39:01.203Z,16.35
2023-08-10T01:44:02.824Z,16.53
2023-08-10T01:49:11.901Z,16.39
2023-08-10T01:54:14.786Z,16.25
2023-08-10T01:59:16.368Z,16.18
2023-08-10T02:04:18.180Z,16.17
2023-08-10T02:09:19.782Z,16.13
2023-08-10T02:14:21.306Z,16.22
2023-08-10T02:19:23.852Z,16.33
2023-08-10T02:24:25.442Z,16.36
2023-08-10T02:29:27.017Z,16.28
2023-08-10T02:34:29.015Z,16.10
2023-08-10T02:39:30.497Z,16.06
2023-08-10T02:44:32.041Z,16.14
2023-08-10T02:49:33.516Z,16.16
2023-08-10T02:54:35.210Z,16.03
2023-08-10T02:59:36.781Z,15.89
2023-08-10T03:04:38.375Z,15.90
2023-08-10T03:09:42.535Z,15.92
2023-08-10T03:14:46.768Z,15.99
2023-08-10T03:19:49.115Z,15.80
2023-08-10T03:24:52.079Z,15.80
2023-08-10T03:29:54.682Z,15.76
2023-08-10T03:34:56.294Z,15.73
2023-08-10T03:39:57.929Z,15.63
2023-08-10T03:44:59.662Z,15.57
2023-08-10T03:50:01.207Z,15.68
2023-08-10T03:55:04.044Z,15.60
2023-08-10T04:00:06.361Z,15.45
2023-08-10T04:05:18.093Z,15.39
2023-08-10T04:10:21.052Z,15.39
2023-08-10T04:15:22.647Z,15.49
2023-08-10T04:20:24.177Z,15.42
2023-08-10T04:25:26.665Z,15.44
2023-08-10T04:30:30.664Z,15.60
2023-08-10T04:35:32.380Z,15.68
2023-08-10T04:40:34.079Z,15.63
2023-08-10T04:45:35.776Z,15.78
2023-08-10T04:50:37.428Z,15.71
2023-08-10T04:55:38.882Z,15.70
2023-08-10T05:00:40.362Z,15.71
2023-08-10T05:05:41.952Z,15.42
2023-08-10T05:10:46.690Z,15.75
2023-08-10T05:15:49.329Z,15.84
2023-08-10T05:20:50.933Z,16.07
2023-08-10T05:25:52.548Z,16.05
2023-08-10T05:30:54.544Z,16.06
2023-08-10T05:35:56.037Z,16.03
2023-08-10T05:40:57.612Z,16.13
2023-08-10T05:45:59.141Z,16.08
2023-08-10T05:51:00.721Z,16.34
2023-08-10T05:56:02.249Z,16.43
2023-08-10T06:01:04.566Z,16.42
2023-08-10T06:06:07.982Z,16.50
2023-08-10T06:11:09.591Z,16.73
2023-08-10T06:16:11.110Z,16.75
2023-08-10T06:21:14.428Z,16.86
2023-08-10T06:26:15.936Z,16.96
2023-08-10T06:31:17.607Z,16.95
2023-08-10T06:36:19.356Z,16.99
2023-08-10T06:41:22.477Z,17.06
2023-08-10T06:46:24.486Z,17.09
2023-08-10T06:51:26.119Z,17.20
2023-08-10T06:56:27.596Z,17.20
2023-08-10T07:01:29.117Z,17.37
2023-08-10T07:06:31.568Z,17.46
2023-08-10T07:11:33.084Z,17.57
2023-08-10T07:16:34.664Z,17.69
2023-08-10T07:21:36.236Z,17.79
2023-08-10T07:26:37.810Z,17.78
2023-08-10T07:31:39.288Z,17.87
2023-08-10T07:36:40.837Z,18.01
2023-08-10T07:41:42.330Z,18.10
2023-08-10T07:46:45.799Z,18.04
2023-08-10T07:51:48.421Z,18.26
2023-08-10T07:56:49.928Z,18.41
2023-08-10T08:01:51.560Z,18.45
2023-08-10T08:06:53.171Z,18.74
2023-08-10T08:11:54.675Z,18.83
2023-08-10T08:16:56.205Z,18.87
2023-08-10T08:21:57.767Z,18.87
2023-08-10T08:26:59.344Z,19.03
2023-08-10T08:32:00.907Z,19.10
2023-08-10T08:37:02.464Z,19.16
2023-08-10T08:42:04.449Z,19.38
2023-08-10T08:47:07.644Z,19.51
2023-08-10T08:52:09.178Z,19.69
2023-08-10T08:57:10.794Z,19.76
2023-08-10T09:02:17.826Z,19.65
2023-08-10T09:07:20.349Z,19.98
2023-08-10T09:12:29.341Z,20.23
2023-08-10T09:17:32.445Z,20.37
2023-08-10T09:22:36.216Z,20.21
2023-08-10T09:27:37.860Z,20.27
2023-08-10T09:32:40.797Z,20.51
2023-08-10T09:37:43.183Z,20.66
2023-08-10T09:42:44.928Z,20.74
2023-08-10T09:47:47.046Z,20.86
2023-08-10T09:52:50.482Z,20.92
2023-08-10T09:57:52.273Z,20.99
2023-08-10T10:02:54.240Z,21.18
2023-08-10T10:07:56.220Z,21.23
2023-08-10T10:12:58.462Z,21.12
2023-08-10T10:18:00.127Z,21.15
2023-08-10T10:23:02.228Z,21.32
2023-08-10T10:28:14.568Z,21.63
2023-08-10T10:33:17.836Z,21.45
2023-08-10T10:38:20.912Z,21.64
2023-08-10T10:43:22.416Z,21.54
2023-08-10T10:48:35.696Z,21.50
2023-08-10T10:53:39.121Z,21.78
2023-08-10T10:58:42.265Z,22.02
2023-08-10T11:03:51.999Z,22.14
2023-08-10T11:08:55.915Z,22.26
2023-08-10T11:13:57.504Z,22.35
2023-08-10T11:18:59.379Z,22.36
2023-08-10T11:24:00.897Z,22.39
2023-08-10T11:29:02.701Z,22.56
2023-08-10T11:34:21.892Z,22.60
2023-08-10T11:39:24.075Z,22.39
2023-08-10T11:44:30.774Z,22.59
2023-08-10T11:49:33.433Z,22.54
2023-08-10T11:54:38.418Z,22.91
2023-08-10T11:59:40.558Z,23.10
2023-08-10T12:04:42.279Z,22.97
2023-08-10T12:09:48.696Z,23.22
2023-08-10T12:14:54.395Z,23.46
2023-08-10T12:19:56.303Z,23.41
2023-08-10T12:24:57.780Z,23.30
2023-08-10T12:29:59.285Z,22.82
2023-08-10T12:35:00.904Z,22.78
2023-08-10T12:40:02.427Z,22.74
2023-08-10T12:45:04.448Z,22.84
2023-08-10T12:50:07.731Z,22.87
2023-08-10T12:55:10.180Z,22.99
2023-08-10T13:00:15.196Z,23.22
2023-08-10T13:05:17.141Z,23.24
2023-08-10T13:10:19.809Z,23.61
2023-08-10T13:15:21.355Z,23.74
2023-08-10T13:20:23.396Z,23.77
2023-08-10T13:25:24.984Z,23.57
2023-08-10T13:30:26.642Z,23.98
2023-08-10T13:35:28.160Z,23.99
2023-08-10T13:40:29.685Z,23.95
2023-08-10T13:45:32.378Z,23.97
2023-08-10T13:50:33.897Z,24.19
2023-08-10T13:55:35.643Z,24.24
2023-08-10T14:00:37.153Z,24.25
2023-08-10T14:05:39.072Z,24.41
2023-08-10T14:10:40.554Z,24.40
2023-08-10T14:15:42.144Z,24.70
2023-08-10T14:20:44.009Z,24.67
2023-08-10T14:25:45.539Z,24.75
2023-08-10T14:30:47.099Z,24.81
2023-08-10T14:35:48.609Z,24.54
2023-08-10T14:40:50.381Z,24.63
2023-08-10T14:45:51.856Z,24.61
2023-08-10T14:50:53.344Z,24.75
2023-08-10T14:55:55.169Z,25.16
2023-08-10T15:00:56.783Z,25.02
2023-08-10T15:06:07.288Z,24.97
2023-08-10T15:11:12.416Z,24.80
2023-08-10T15:16:15.783Z,24.88
2023-08-10T15:21:17.830Z,24.95
2023-08-10T15:26:19.352Z,24.94
2023-08-10T15:31:22.281Z,25.09
2023-08-10T15:36:23.791Z,24.97
2023-08-10T15:41:25.410Z,25.00
2023-08-10T15:46:27.025Z,25.02
2023-08-10T15:51:28.797Z,24.77
2023-08-10T15:56:30.632Z,24.97
2023-08-10T16:01:32.405Z,25.01
2023-08-10T16:06:34.559Z,24.85
2023-08-10T16:11:36.291Z,25.06
2023-08-10T16:16:37.799Z,24.81
2023-08-10T16:21:39.311Z,24.91
2023-08-10T16:26:41.279Z,24.67
2023-08-10T16:31:42.900Z,24.57
2023-08-10T16:36:44.493Z,24.48
2023-08-10T16:41:45.979Z,24.31
2023-08-10T16:46:47.593Z,24.18
2023-08-10T16:51:49.113Z,24.14
2023-08-10T16:56:50.685Z,24.10
2023-08-10T17:01:53.751Z,24.09
2023-08-10T17:06:56.621Z,23.95
2023-08-10T17:11:58.166Z,23.78
2023-08-10T17:17:01.673Z,23.71
2023-08-10T17:22:06.173Z,23.69
2023-08-10T17:27:08.025Z,23.61
2023-08-10T17:32:09.682Z,23.55
2023-08-10T17:37:11.368Z,23.39
2023-08-10T17:42:12.945Z,23.29
2023-08-10T17:47:14.492Z,23.42
2023-08-10T17:52:16.262Z,23.40
2023-08-10T17:57:17.792Z,23.28
2023-08-10T18:02:19.371Z,23.15
2023-08-10T18:07:20.908Z,22.95
2023-08-10T18:12:22.418Z,22.93
2023-08-10T18:17:24.293Z,22.77
2023-08-10T18:22:25.796Z,22.76
2023-08-10T18:27:27.324Z,22.63
2023-08-10T18:32:28.958Z,22.56
2023-08-10T18:37:30.586Z,22.45
2023-08-10T18:42:32.176Z,22.31
2023-08-10T18:47:35.687Z,22.19
2023-08-10T18:52:37.178Z,22.11
2023-08-10T18:57:39.622Z,22.01
2023-08-10T19:02:44.499Z,21.89
2023-08-10T19:07:47.324Z,21.81
2023-08-10T19:12:48.812Z,21.55
2023-08-10T19:17:50.339Z,21.53
2023-08-10T19:22:51.974Z,21.35
2023-08-10T19:27:53.821Z,21.44
2023-08-10T19:32:55.416Z,21.38
2023-08-10T19:37:57.028Z,21.30
2023-08-10T19:42:58.588Z,21.23
2023-08-10T19:48:01.187Z,21.05
2023-08-10T19:53:05.053Z,20.88
2023-08-10T19:58:06.595Z,20.89
2023-08-10T20:03:08.220Z,20.76
2023-08-10T20:08:09.851Z,20.65
2023-08-10T20:13:11.771Z,20.61
2023-08-10T20:18:13.257Z,20.45
2023-08-10T20:23:14.745Z,20.44
2023-08-10T20:28:16.347Z,20.31
2023-08-10T20:33:18.534Z,20.35
2023-08-10T20:38:20.118Z,20.19
2023-08-10T20:43:21.598Z,20.08
2023-08-10T20:48:23.148Z,20.13
2023-08-10T20:53:27.078Z,19.98
2023-08-10T20:58:28.573Z,20.14
2023-08-10T21:03:31.258Z,20.08
2023-08-10T21:08:33.859Z,19.88
2023-08-10T21:13:35.636Z,19.88
2023-08-10T21:18:37.187Z,19.73
2023-08-10T21:23:38.653Z,19.81
2023-08-10T21:28:40.212Z,19.80
2023-08-10T21:33:41.857Z,19.69
2023-08-10T21:38:43.307Z,19.58
2023-08-10T21:43:44.812Z,19.43
2023-08-10T21:48:46.313Z,19.40
2023-08-10T21:53:47.868Z,19.41
2023-08-10T21:58:49.360Z,19.27
2023-08-10T22:03:51.222Z,19.27
2023-08-10T22:08:52.713Z,19.15
2023-08-10T22:13:57.933Z,19.10
2023-08-10T22:18:59.808Z,18.96
2023-08-10T22:24:01.298Z,18.68
2023-08-10T22:29:03.317Z,18.71
2023-08-10T22:34:05.155Z,18.65
2023-08-10T22:39:06.620Z,18.82
2023-08-10T22:44:08.547Z,18.78
2023-08-10T22:49:11.028Z,18.72
2023-08-10T22:54:12.598Z,18.69
2023-08-10T22:59:14.945Z,18.66
2023-08-10T23:04:16.476Z,18.72
2023-08-10T23:09:18.468Z,18.53
2023-08-10T23:14:20.019Z,18.57
2023-08-10T23:19:23.371Z,18.68
2023-08-10T23:24:27.821Z,18.65
2023-08-10T23:29:29.299Z,18.57
2023-08-10T23:34:31.632Z,18.54
2023-08-10T23:39:33.200Z,18.67
2023-08-10T23:44:35.773Z,18.49
2023-08-10T23:49:37.338Z,18.56
2023-08-10T23:54:39.070Z,18.55
2023-08-10T23:59:41.565Z,18.36
